Time;durP1;ratioP1;P1;durP2;ratioP2;P2;SDS_P1;SDS_P2;PMS_P1;PMS_P2;Temp;Humidity;BMP_temperature;BMP_pressure;BME280_temperature;BME280_humidity;BME280_pressure;Samples;Min_cycle;Max_cycle;Signal;HPM_P1;HPM_P2
2022/06/07 00:00:10;;;;;;;2.60;2.40;;;;;;;18.99;67.24;101052.88;4992914;28;103740;-55
2022/06/07 00:02:36;;;;;;;2.65;2.40;;;;;;;19.00;67.31;101053.69;4994279;28;102355;-56
2022/06/07 00:05:06;;;;;;;3.30;2.22;;;;;;;19.00;67.42;101056.44;4992521;28;102068;-56
2022/06/07 00:07:37;;;;;;;3.35;2.30;;;;;;;18.99;67.51;101050.13;4994119;28;101932;-56
2022/06/07 00:10:04;;;;;;;;;;;;;;;18.99;67.68;101055.63;4984045;28;104107;-56
2022/06/07 00:12:31;;;;;;;2.60;2.40;;;;;;;18.99;67.22;101049.31;4974283;28;102149;-56
2022/06/07 00:14:57;;;;;;;2.33;2.20;;;;;;;18.99;67.24;101043.78;4976186;28;102492;-56
2022/06/07 00:17:24;;;;;;;2.58;2.38;;;;;;;18.98;66.85;101047.69;4976779;28;102973;-56
2022/06/07 00:19:51;;;;;;;2.55;2.35;;;;;;;18.99;66.92;101041.03;4991907;28;103992;-56
2022/06/07 00:22:18;;;;;;;2.45;2.25;;;;;;;18.99;67.26;101054.81;4986605;28;102607;-56
2022/06/07 00:24:46;;;;;;;2.22;2.13;;;;;;;18.99;66.66;101047.34;4972559;28;102471;-55
2022/06/07 00:27:13;;;;;;;2.63;2.43;;;;;;;18.96;66.78;101048.81;4977304;28;102424;-55
2022/06/07 00:29:41;;;;;;;2.28;2.08;;;;;;;18.99;66.65;101049.31;4992210;28;103839;-56
2022/06/07 00:32:08;;;;;;;2.42;2.30;;;;;;;18.99;66.98;101052.06;4987942;28;102175;-55
2022/06/07 00:34:35;;;;;;;2.47;2.28;;;;;;;19.00;66.71;101045.41;4975017;28;102346;-55
2022/06/07 00:37:02;;;;;;;2.20;2.05;;;;;;;18.99;66.98;101055.63;4989421;28;102502;-56
2022/06/07 00:39:29;;;;;;;2.58;2.38;;;;;;;18.99;67.29;101046.53;4992326;28;103941;-56
2022/06/07 00:41:57;;;;;;;2.60;2.40;;;;;;;18.99;67.37;101057.59;4981390;28;102450;-56
2022/06/07 00:44:33;;;;;;;2.67;2.20;;;;;;;18.98;67.37;101054.00;4989868;28;102461;-56
2022/06/07 00:47:03;;;;;;;2.70;2.50;;;;;;;18.99;67.36;101050.13;4980703;28;102311;-56
2022/06/07 00:49:34;;;;;;;2.45;2.17;;;;;;;18.99;67.05;101049.31;4976768;28;103711;-56
2022/06/07 00:52:01;;;;;;;2.30;2.20;;;;;;;19.00;67.28;101050.91;4974015;28;102540;-56
2022/06/07 00:54:31;;;;;;;2.00;1.90;;;;;;;18.99;67.14;101043.78;4974086;28;102303;-56
2022/06/07 00:56:59;;;;;;;2.25;2.10;;;;;;;18.99;67.16;101043.78;4986670;28;102164;-56
2022/06/07 00:59:27;;;;;;;2.20;2.10;;;;;;;18.98;67.46;101042.97;4989453;28;103997;-56
2022/06/07 01:01:54;;;;;;;2.30;2.13;;;;;;;18.99;67.35;101046.53;4974123;28;102414;-55
2022/06/07 01:04:23;;;;;;;2.33;2.13;;;;;;;18.99;67.17;101038.28;4973084;28;102630;-56
2022/06/07 01:12:22;;;;;;;2.30;2.20;;;;;;;18.98;67.55;101048.50;4984947;28;102909;-55
2022/06/07 01:14:48;;;;;;;3.17;2.15;;;;;;;18.97;67.71;101035.84;4969346;28;102394;-56
2022/06/07 01:17:16;;;;;;;2.13;2.03;;;;;;;18.96;67.59;101035.00;4972802;28;102642;-56
2022/06/07 01:19:43;;;;;;;4.00;2.20;;;;;;;18.99;67.83;101043.78;4967101;28;104065;-56
2022/06/07 01:22:11;;;;;;;1.80;1.70;;;;;;;18.99;67.67;101043.78;4966126;28;102433;-55
2022/06/07 01:24:39;;;;;;;2.10;2.00;;;;;;;18.97;67.54;101035.84;4965900;28;102374;-59
2022/06/07 01:27:08;;;;;;;2.08;1.98;;;;;;;18.96;67.97;101039.72;4981218;28;102621;-56
2022/06/07 01:29:35;;;;;;;1.98;1.85;;;;;;;18.94;67.75;101037.28;4983905;28;104178;-56
2022/06/07 01:32:03;;;;;;;2.33;2.17;;;;;;;18.93;68.12;101030.16;4986509;28;103062;-56
2022/06/07 01:34:30;;;;;;;2.47;2.27;;;;;;;18.93;68.08;101035.69;4989685;28;102427;-55
2022/06/07 01:36:57;;;;;;;2.40;2.20;;;;;;;18.93;68.20;101040.34;4972453;28;102848;-55
2022/06/07 01:42:13;;;;;;;2.57;2.23;;;;;;;18.92;67.90;101039.53;4984059;28;102244;-56
2022/06/07 01:44:44;;;;;;;2.10;2.00;;;;;;;18.92;67.76;101034.03;4985336;28;102524;-55
2022/06/07 01:47:13;;;;;;;2.63;2.42;;;;;;;18.93;67.87;101041.19;4979720;28;102406;-55
2022/06/07 01:49:40;;;;;;;2.35;2.15;;;;;;;18.94;67.74;101044.75;4983673;28;103898;-56
2022/06/07 01:52:08;;;;;;;2.20;2.10;;;;;;;18.94;67.81;101048.31;4995979;28;102647;-55
2022/06/07 01:54:36;;;;;;;2.85;2.20;;;;;;;18.94;67.81;101037.28;4994335;28;106256;-55
2022/06/07 01:57:05;;;;;;;2.50;2.30;;;;;;;18.94;67.55;101039.25;4997033;28;102707;-55
2022/06/07 01:59:32;;;;;;;2.20;2.00;;;;;;;18.93;67.64;101037.59;4993565;28;104012;-55
2022/06/07 02:01:59;;;;;;;1.92;1.67;;;;;;;18.94;67.79;101048.31;4995376;28;102107;-55
2022/06/07 02:04:26;;;;;;;2.08;1.98;;;;;;;18.93;67.65;101041.19;4981431;28;103260;-55
2022/06/07 02:06:53;;;;;;;2.28;2.00;;;;;;;18.94;67.82;101040.06;4976741;28;102187;-56
2022/06/07 02:09:20;;;;;;;2.38;2.17;;;;;;;18.93;67.56;101041.19;4976618;28;104020;-55
2022/06/07 02:11:48;;;;;;;2.17;1.98;;;;;;;18.94;67.67;101036.47;4979154;28;102230;-56
2022/06/07 02:14:15;;;;;;;2.97;2.00;;;;;;;18.94;67.88;101042.81;4993780;28;102326;-56
2022/06/07 02:16:48;;;;;;;2.08;1.98;;;;;;;18.93;67.73;101038.44;4996294;28;102256;-55
2022/06/07 02:19:15;;;;;;;2.35;2.10;;;;;;;18.93;67.77;101041.19;4986506;28;103984;-56
2022/06/07 02:21:43;;;;;;;2.20;2.10;;;;;;;18.94;67.78;101042.81;4976260;28;102204;-55
2022/06/07 02:24:10;;;;;;;2.05;1.95;;;;;;;18.93;67.49;101046.72;4982749;28;102597;-56
2022/06/07 02:26:41;;;;;;;2.10;1.73;;;;;;;18.94;68.03;101042.00;4995298;28;102617;-56
2022/06/07 02:29:16;;;;;;;2.08;1.88;;;;;;;18.93;67.85;101049.47;4994143;28;103949;-55
2022/06/07 02:31:47;;;;;;;2.00;1.90;;;;;;;18.93;67.93;101046.72;4994492;28;102401;-55
2022/06/07 02:34:16;;;;;;;2.22;2.00;;;;;;;18.92;67.79;101061.59;4993581;28;102284;-56
2022/06/07 02:36:47;;;;;;;3.72;2.15;;;;;;;18.92;68.06;101047.81;4996460;28;102232;-56
2022/06/07 02:39:14;;;;;;;2.00;1.80;;;;;;;18.92;68.27;101058.84;4986118;28;103995;-55
2022/06/07 02:41:42;;;;;;;1.85;1.75;;;;;;;18.92;68.08;101061.59;4975307;28;102548;-56
2022/06/07 02:44:08;;;;;;;2.50;2.20;;;;;;;18.92;68.15;101061.59;4984823;28;103786;-56
2022/06/07 02:46:36;;;;;;;2.33;2.00;;;;;;;18.92;68.07;101061.59;4995982;28;102253;-56
2022/06/07 02:49:04;;;;;;;2.22;2.00;;;;;;;18.92;68.11;101056.09;4993765;28;103900;-55
2022/06/07 02:51:31;;;;;;;2.08;1.98;;;;;;;18.93;67.95;101057.75;4994031;28;102117;-56
2022/06/07 02:53:57;;;;;;;2.30;2.10;;;;;;;18.93;68.21;101066.00;4993622;28;102498;-55
2022/06/07 02:56:24;;;;;;;2.15;1.88;;;;;;;18.92;68.04;101069.88;4995272;28;102804;-56
2022/06/07 02:58:50;;;;;;;2.15;1.80;;;;;;;18.94;68.02;101073.16;4991004;28;103696;-56
2022/06/07 03:01:17;;;;;;;2.30;2.10;;;;;;;18.94;67.83;101070.38;4975082;28;102038;-56
2022/06/07 03:03:45;;;;;;;1.98;1.88;;;;;;;18.96;67.50;101079.13;4980205;28;102233;-56
2022/06/07 03:06:12;;;;;;;2.30;2.13;;;;;;;18.96;67.36;101079.13;4992133;28;102504;-56
2022/06/07 03:08:41;;;;;;;;;;;;;;;18.96;67.40;101079.13;4994231;28;104081;-55
2022/06/07 03:11:08;;;;;;;1.77;1.67;;;;;;;18.95;67.61;101077.53;4994526;28;102683;-55
2022/06/07 03:13:35;;;;;;;2.10;1.90;;;;;;;18.97;67.54;101074.47;4980519;28;102251;-55
2022/06/07 03:16:03;;;;;;;3.77;2.00;;;;;;;18.97;67.91;101077.22;4975626;28;102757;-55
2022/06/07 03:18:30;;;;;;;2.53;1.90;;;;;;;18.98;67.70;101078.84;4986897;28;103960;-56
2022/06/07 03:20:59;;;;;;;2.58;1.60;;;;;;;19.00;67.90;101081.25;4993524;28;102480;-56
2022/06/07 03:23:25;;;;;;;1.90;1.80;;;;;;;18.98;68.06;101081.59;4981937;28;102109;-56
2022/06/07 03:26:01;;;;;;;4.10;2.08;;;;;;;19.00;68.02;101078.50;4978916;28;102433;-55
2022/06/07 03:28:27;;;;;;;2.08;1.88;;;;;;;19.00;68.02;101084.03;4983759;28;103824;-55
2022/06/07 03:30:54;;;;;;;1.92;1.83;;;;;;;19.00;67.98;101078.50;4973794;28;102299;-55
2022/06/07 03:33:20;;;;;;;2.22;2.03;;;;;;;19.00;67.85;101068.28;4986245;28;102409;-56
2022/06/07 03:35:48;;;;;;;2.47;2.28;;;;;;;19.01;67.86;101069.13;4994577;28;102662;-56
2022/06/07 03:38:16;;;;;;;2.10;1.98;;;;;;;19.00;67.98;101070.22;4991328;28;103980;-56
2022/06/07 03:40:43;;;;;;;2.40;2.20;;;;;;;19.01;68.13;101077.41;4991585;28;103312;-56
2022/06/07 03:43:11;;;;;;;2.72;1.80;;;;;;;19.00;68.10;101065.53;4983956;28;102130;-55
2022/06/07 03:45:38;;;;;;;33.67;4.35;;;;;;;19.00;68.47;101067.47;4988614;28;102290;-56
2022/06/07 03:48:05;;;;;;;3.38;1.90;;;;;;;19.01;68.52;101063.59;4992194;28;103920;-56
2022/06/07 03:50:32;;;;;;;3.25;2.10;;;;;;;19.00;68.29;101061.94;4994509;28;102456;-55
2022/06/07 03:53:00;;;;;;;4.03;2.00;;;;;;;19.00;68.37;101061.94;4991667;28;102196;-56
2022/06/07 03:55:29;;;;;;;2.40;2.20;;;;;;;19.00;68.69;101057.25;4993622;28;102346;-55
2022/06/07 03:57:56;;;;;;;2.30;2.00;;;;;;;19.00;68.63;101054.50;4991820;28;104049;-55
2022/06/07 04:00:22;;;;;;;4.10;2.10;;;;;;;19.01;68.54;101058.09;4993783;28;102277;-56
2022/06/07 04:02:49;;;;;;;6.40;2.40;;;;;;;19.01;68.33;101060.84;4994001;28;102495;-55
2022/06/07 04:05:16;;;;;;;2.00;1.60;;;;;;;19.00;68.67;101059.19;4983260;28;102663;-56
2022/06/07 04:10:30;;;;;;;2.10;1.70;;;;;;;19.01;68.33;101066.34;4990474;28;102059;-54
2022/06/07 04:12:56;;;;;;;2.40;2.20;;;;;;;19.01;68.07;101058.91;4992277;28;102356;-56
2022/06/07 04:15:23;;;;;;;88.80;6.18;;;;;;;19.01;68.11;101055.31;4992444;28;102764;-57
2022/06/07 04:17:53;;;;;;;3.20;1.95;;;;;;;19.01;68.52;101053.38;4991631;28;103864;-55
2022/06/07 04:20:20;;;;;;;3.08;2.13;;;;;;;19.00;68.25;101051.72;4983897;28;102607;-54
2022/06/07 04:22:47;;;;;;;2.63;2.03;;;;;;;19.02;68.46;101051.44;4993542;28;102627;-55
2022/06/07 04:25:14;;;;;;;2.90;1.92;;;;;;;19.01;68.63;101052.56;4987667;28;102366;-56
2022/06/07 04:27:43;;;;;;;8.15;2.60;;;;;;;19.01;68.38;101061.66;4991172;28;104086;-54
2022/06/07 04:30:11;;;;;;;8.77;2.30;;;;;;;19.02;68.26;101054.19;4992738;28;102506;-56
2022/06/07 04:32:43;;;;;;;3.38;2.10;;;;;;;19.02;68.27;101048.66;4993724;28;102040;-56
2022/06/07 04:35:10;;;;;;;2.53;2.33;;;;;;;19.02;68.09;101051.44;4994121;28;102685;-55
2022/06/07 04:37:37;;;;;;;4.00;2.47;;;;;;;19.03;67.84;101056.63;4992496;28;104049;-56
2022/06/07 04:40:04;;;;;;;2.33;2.13;;;;;;;19.03;67.88;101053.03;4989085;28;102531;-56
2022/06/07 04:42:31;;;;;;;4.00;2.20;;;;;;;19.03;67.82;101051.09;4992216;28;102366;-57
2022/06/07 04:44:59;;;;;;;2.40;2.20;;;;;;;19.04;68.14;101052.75;4994540;28;102090;-56
2022/06/07 04:47:25;;;;;;;3.25;2.20;;;;;;;19.04;67.93;101051.91;4992215;28;104036;-56
2022/06/07 04:49:52;;;;;;;2.75;2.47;;;;;;;19.05;67.99;101053.56;4982098;28;102311;-55
2022/06/07 04:52:19;;;;;;;2.50;2.30;;;;;;;19.05;68.17;101056.31;4984381;28;102378;-56
2022/06/07 04:54:46;;;;;;;2.45;2.25;;;;;;;19.07;68.06;101062.31;4993689;28;102601;-56
2022/06/07 04:57:13;;;;;;;3.35;2.30;;;;;;;19.06;68.18;101061.50;4990738;28;103890;-55
2022/06/07 04:59:39;;;;;;;3.30;2.30;;;;;;;19.07;67.92;101062.31;4986771;28;102384;-56
2022/06/07 05:02:08;;;;;;;2.92;2.22;;;;;;;19.07;68.02;101062.31;4986540;28;102579;-54
2022/06/07 05:04:34;;;;;;;3.05;2.22;;;;;;;19.08;68.32;101063.94;4985415;28;102153;-56
2022/06/07 05:07:01;;;;;;;2.20;2.00;;;;;;;19.10;68.54;101069.94;4984691;28;104091;-54
2022/06/07 05:09:29;;;;;;;2.13;1.92;;;;;;;19.11;68.34;101071.56;4986139;28;102304;-56
2022/06/07 05:11:55;;;;;;;2.75;2.20;;;;;;;19.12;68.48;101064.94;4984734;28;102361;-55
2022/06/07 05:14:23;;;;;;;2.10;2.00;;;;;;;19.13;68.53;101072.88;4980462;28;102480;-56
2022/06/07 05:16:51;;;;;;;2.38;2.17;;;;;;;19.14;68.34;101070.91;4982664;28;103896;-55
2022/06/07 05:19:20;;;;;;;2.58;1.90;;;;;;;19.14;68.27;101070.91;4993908;28;102425;-57
2022/06/07 05:21:47;;;;;;;2.30;2.10;;;;;;;19.16;68.49;101077.75;4983551;28;102085;-56
2022/06/07 05:24:14;;;;;;;2.30;2.10;;;;;;;19.18;68.25;101074.66;4995721;28;102737;-55
2022/06/07 05:26:45;;;;;;;3.53;1.98;;;;;;;19.20;68.38;101072.41;4986697;28;104642;-55
2022/06/07 05:29:17;;;;;;;2.35;2.08;;;;;;;19.22;68.41;101075.63;4995067;28;102463;-56
2022/06/07 05:31:44;;;;;;;3.15;2.38;;;;;;;19.25;68.25;101079.72;4995316;28;102900;-56
2022/06/07 05:34:10;;;;;;;2.47;2.05;;;;;;;19.26;68.09;101078.56;4980402;28;102514;-55
2022/06/07 05:36:39;;;;;;;2.20;2.00;;;;;;;19.26;67.88;101082.16;4975915;28;103576;-55
2022/06/07 05:39:06;;;;;;;2.30;2.10;;;;;;;19.27;68.42;101083.78;4986149;28;102718;-57
2022/06/07 05:41:34;;;;;;;2.25;2.00;;;;;;;19.30;68.06;101088.66;4987812;28;102356;-56
2022/06/07 05:44:01;;;;;;;2.40;2.20;;;;;;;19.31;68.08;101086.72;4992084;28;102512;-56
2022/06/07 05:46:27;;;;;;;2.03;1.83;;;;;;;19.34;68.14;101095.16;4991829;28;103942;-56
2022/06/07 05:48:54;;;;;;;2.42;1.80;;;;;;;19.36;68.31;101086.56;4987340;28;102548;-56
2022/06/07 05:51:21;;;;;;;3.78;2.05;;;;;;;19.37;68.18;101094.53;4988255;28;102258;-56
2022/06/07 05:53:52;;;;;;;2.83;2.35;;;;;;;19.38;67.92;101092.56;4994437;28;102466;-56
2022/06/07 05:56:19;;;;;;;3.45;2.00;;;;;;;19.64;63.91;101093.44;4988996;28;103992;-54
2022/06/07 05:58:48;;;;;;;12.35;2.90;;;;;;;19.89;60.77;101083.56;4986603;28;102440;-54
2022/06/07 06:01:15;;;;;;;6.90;2.50;;;;;;;19.97;60.08;101083.88;4995409;28;102176;-55
2022/06/07 06:03:42;;;;;;;4.93;2.60;;;;;;;20.06;58.34;101081.94;4996760;28;102167;-54
2022/06/07 06:06:09;;;;;;;5.05;3.15;;;;;;;20.10;57.61;101083.69;4994103;28;103878;-54
2022/06/07 06:11:27;;;;;;;7.55;2.85;;;;;;;20.17;57.72;101078.50;4981168;28;102517;-54
2022/06/07 06:13:54;;;;;;;5.30;2.95;;;;;;;20.19;58.10;101080.91;4990319;28;102087;-55
2022/06/07 06:16:22;;;;;;;6.38;2.80;;;;;;;20.20;58.04;101082.56;4993233;28;104022;-55
2022/06/07 06:18:52;;;;;;;3.40;2.60;;;;;;;20.24;57.57;101083.53;4978959;28;102364;-55
2022/06/07 06:21:21;;;;;;;12.80;3.22;;;;;;;20.16;58.47;101078.84;4987856;28;102039;-54
2022/06/07 06:23:48;;;;;;;7.95;3.00;;;;;;;19.92;60.64;101082.91;4993257;28;102817;-54
2022/06/07 06:26:17;;;;;;;5.95;2.92;;;;;;;19.84;61.54;101080.16;4990609;28;104039;-54
2022/06/07 06:28:46;;;;;;;6.47;3.10;;;;;;;19.78;62.68;101075.91;4993259;28;102274;-53
2022/06/07 06:31:13;;;;;;;3.97;2.90;;;;;;;19.76;63.34;101067.13;4992393;28;102100;-54
2022/06/07 06:33:44;;;;;;;4.90;3.05;;;;;;;19.75;63.82;101077.38;4990690;28;102587;-53
2022/06/07 06:36:16;;;;;;;3.38;2.80;;;;;;;19.76;64.30;101083.72;4981742;28;104094;-54
2022/06/07 06:38:43;;;;;;;4.60;3.30;;;;;;;19.75;64.44;101082.91;4993456;28;102285;-54
2022/06/07 06:41:11;;;;;;;3.85;2.70;;;;;;;19.75;64.56;101085.66;4989303;28;102424;-56
2022/06/07 06:43:38;;;;;;;3.85;2.78;;;;;;;19.76;64.76;101084.50;4989496;28;104032;-53
2022/06/07 06:46:08;;;;;;;4.20;3.00;;;;;;;19.75;65.13;101082.91;4990319;28;103942;-54
2022/06/07 06:48:35;;;;;;;3.35;2.42;;;;;;;19.77;64.70;101085.34;4995641;28;102587;-54
2022/06/07 06:51:04;;;;;;;3.20;2.63;;;;;;;19.76;64.35;101084.50;4992781;28;102709;-53
2022/06/07 06:53:31;;;;;;;4.38;3.17;;;;;;;19.75;64.36;101082.91;4994654;28;102213;-53
2022/06/07 06:55:57;;;;;;;9.68;3.20;;;;;;;19.74;65.20;101078.53;4986238;28;103981;-53
2022/06/07 06:58:25;;;;;;;4.22;2.67;;;;;;;19.75;64.84;101077.38;4992586;28;102108;-53
2022/06/07 07:01:00;;;;;;;4.38;2.90;;;;;;;19.75;64.47;101082.91;4993480;28;102406;-53
2022/06/07 07:03:28;;;;;;;6.38;3.10;;;;;;;19.78;65.54;101087.78;4994659;28;102882;-53
2022/06/07 07:05:56;;;;;;;3.73;3.33;;;;;;;19.81;65.10;101087.13;4992320;28;103997;-54
2022/06/07 07:08:23;;;;;;;4.97;3.20;;;;;;;19.89;62.95;101086.31;4984337;28;102399;-53
2022/06/07 07:10:50;;;;;;;5.00;3.55;;;;;;;19.89;62.91;101082.75;4993255;28;102448;-53
2022/06/07 07:13:18;;;;;;;4.90;3.58;;;;;;;19.96;62.35;101085.03;4993969;28;102287;-54
2022/06/07 07:15:47;;;;;;;6.15;3.28;;;;;;;19.98;62.71;101082.72;4985824;28;104220;-54
2022/06/07 07:18:14;;;;;;;3.33;2.83;;;;;;;19.89;63.46;101083.56;4993554;28;102518;-53
2022/06/07 07:20:42;;;;;;;5.70;3.72;;;;;;;19.92;62.59;101091.19;4984967;28;102199;-53
2022/06/07 07:23:09;;;;;;;6.47;4.23;;;;;;;20.01;61.38;101079.31;4995056;28;102274;-53
2022/06/07 07:25:36;;;;;;;5.07;3.90;;;;;;;20.03;61.53;101077.06;4993111;28;103574;-54
2022/06/07 07:28:03;;;;;;;4.25;3.83;;;;;;;20.06;60.74;101076.41;4993189;28;104848;-53
2022/06/07 07:30:30;;;;;;;4.88;3.75;;;;;;;20.15;60.24;101068.91;4993163;28;102348;-54
2022/06/07 07:32:57;;;;;;;6.05;3.70;;;;;;;20.11;60.12;101079.00;4993682;28;102193;-54
2022/06/07 07:35:24;;;;;;;5.55;4.40;;;;;;;20.13;60.20;101076.72;4979958;28;103917;-54
2022/06/07 07:37:53;;;;;;;7.10;4.10;;;;;;;20.09;60.50;101075.75;4974593;28;102465;-54
2022/06/07 07:40:20;;;;;;;5.32;3.92;;;;;;;20.03;61.17;101072.34;4975363;28;102219;-53
2022/06/07 07:42:47;;;;;;;6.55;4.15;;;;;;;20.11;60.27;101084.50;4987536;28;102171;-54
2022/06/07 07:45:13;;;;;;;5.97;4.15;;;;;;;20.12;60.08;101080.59;4985772;28;108780;-54
2022/06/07 07:47:41;;;;;;;6.78;4.25;;;;;;;20.08;60.44;101079.63;4991358;28;102645;-54
2022/06/07 07:50:08;;;;;;;5.75;4.13;;;;;;;20.10;59.93;101080.94;4976421;28;102607;-54
2022/06/07 07:52:35;;;;;;;8.17;4.30;;;;;;;20.09;60.42;101075.75;4975528;28;102360;-54
2022/06/07 07:55:04;;;;;;;7.15;4.05;;;;;;;20.07;60.74;101073.31;4978346;28;104020;-54
2022/06/07 07:57:31;;;;;;;7.30;4.85;;;;;;;20.08;60.57;101076.88;4987665;28;103259;-54
2022/06/07 07:59:58;;;;;;;7.22;4.22;;;;;;;20.07;60.05;101066.97;4986892;28;102303;-54
2022/06/07 08:02:26;;;;;;;7.68;4.32;;;;;;;20.09;59.83;101075.75;4992676;28;102741;-54
2022/06/07 08:04:53;;;;;;;6.35;4.25;;;;;;;20.22;58.55;101068.41;4994081;28;104073;-54
2022/06/07 08:07:23;;;;;;;7.03;4.20;;;;;;;20.22;58.39;101074.75;4993335;28;102512;-54
2022/06/07 08:09:55;;;;;;;6.40;4.20;;;;;;;20.25;58.40;101074.09;4993294;28;102590;-54
2022/06/07 08:12:24;;;;;;;6.00;4.13;;;;;;;20.27;57.43;101082.06;4990499;28;102364;-54
2022/06/07 08:14:51;;;;;;;6.07;4.18;;;;;;;20.20;58.33;101076.22;4992308;28;103913;-53
2022/06/07 08:17:17;;;;;;;6.22;4.60;;;;;;;20.18;58.80;101082.06;4994160;28;102322;-54
2022/06/07 08:19:44;;;;;;;6.82;4.40;;;;;;;20.19;57.96;101082.88;4986278;28;102244;-54
2022/06/07 08:22:11;;;;;;;7.53;4.10;;;;;;;20.12;58.47;101081.44;4983250;28;102325;-53
2022/06/07 08:24:39;;;;;;;5.13;3.63;;;;;;;20.09;58.95;101075.75;4992833;28;104248;-54
2022/06/07 08:27:06;;;;;;;5.45;4.35;;;;;;;20.07;59.76;101073.31;4991504;28;102937;-54
2022/06/07 08:29:34;;;;;;;6.15;4.18;;;;;;;20.09;59.11;101070.22;4973369;28;102903;-54
2022/06/07 08:32:01;;;;;;;7.03;3.55;;;;;;;20.10;59.73;101077.38;4986858;28;102427;-54
2022/06/07 08:39:58;;;;;;;6.10;3.78;;;;;;;20.07;58.27;101070.53;4992150;28;103658;-54
2022/06/07 08:42:30;;;;;;;6.13;4.00;;;;;;;20.12;57.84;101066.78;4994196;28;102423;-53
2022/06/07 08:45:01;;;;;;;5.18;3.90;;;;;;;20.13;57.80;101060.16;4992430;28;103881;-53
2022/06/07 08:47:33;;;;;;;4.22;3.70;;;;;;;20.08;58.10;101063.88;4990016;28;102427;-53
2022/06/07 08:50:12;;;;;;;4.95;3.80;;;;;;;20.09;58.80;101064.69;4986454;28;102546;-54
2022/06/07 08:52:40;;;;;;;5.05;3.47;;;;;;;19.97;60.29;101056.25;4989919;28;102596;-54
2022/06/07 08:55:15;;;;;;;5.10;3.92;;;;;;;20.01;58.90;101066.31;4990838;28;104084;-54
2022/06/07 08:57:43;;;;;;;4.20;3.80;;;;;;;19.93;59.90;101062.41;4992670;28;102331;-54
2022/06/07 09:00:19;;;;;;;5.90;3.75;;;;;;;19.92;59.81;101055.28;4993590;28;102947;-54
2022/06/07 09:03:14;;;;;;;5.35;3.92;;;;;;;19.92;59.56;101058.03;4994510;28;102724;-54
2022/06/07 09:05:41;;;;;;;7.65;4.22;;;;;;;19.95;59.53;101050.25;4980204;28;103850;-54
2022/06/07 09:08:10;;;;;;;7.75;4.07;;;;;;;19.91;60.61;101064.72;4989271;28;104460;-54
2022/06/07 09:13:35;;;;;;;5.57;4.32;;;;;;;19.92;58.65;101055.28;4966548;28;102285;-54
2022/06/07 09:16:05;;;;;;;4.75;4.03;;;;;;;19.89;62.02;101050.41;4986911;28;103891;-54
2022/06/07 09:18:33;;;;;;;5.85;3.92;;;;;;;19.86;61.85;101059.34;4983544;28;102586;-54
2022/06/07 09:21:08;;;;;;;6.07;4.00;;;;;;;19.92;59.94;101046.19;4990654;28;102396;-54
2022/06/07 09:23:43;;;;;;;5.93;4.35;;;;;;;19.96;62.41;101043.59;4981371;28;103214;-54
2022/06/07 09:26:19;;;;;;;5.78;4.10;;;;;;;19.90;59.29;101040.16;4991846;28;104013;-54
2022/06/07 09:28:50;;;;;;;7.50;4.18;;;;;;;19.91;61.91;101041.81;4987725;28;102363;-54
2022/06/07 09:31:21;;;;;;;4.25;3.85;;;;;;;19.92;60.77;101044.22;4993413;28;102572;-54
2022/06/07 09:33:53;;;;;;;4.10;3.70;;;;;;;19.89;60.99;101044.06;4994486;28;102334;-54
2022/06/07 09:36:27;;;;;;;5.50;4.05;;;;;;;19.95;61.39;101036.44;4991421;28;104905;-54
2022/06/07 09:38:56;;;;;;;5.05;4.15;;;;;;;19.87;62.89;101035.28;4993263;28;102912;-54
2022/06/07 09:41:37;;;;;;;5.80;4.05;;;;;;;19.86;62.35;101034.47;4978860;28;102616;-54
2022/06/07 09:44:12;;;;;;;5.18;3.95;;;;;;;19.89;61.45;101036.59;4993793;28;102553;-54
2022/06/07 09:46:42;;;;;;;4.50;3.90;;;;;;;19.88;59.16;101036.94;4985315;28;103958;-54
2022/06/07 09:49:25;;;;;;;4.95;3.92;;;;;;;19.92;59.65;101038.72;4990310;28;102478;-54
2022/06/07 09:51:52;;;;;;;5.03;3.80;;;;;;;19.91;59.48;101041.81;4987576;28;102016;-55
2022/06/07 09:54:21;;;;;;;5.65;3.88;;;;;;;19.91;60.54;101031.56;4992527;28;102508;-54
2022/06/07 09:57:01;;;;;;;5.18;3.38;;;;;;;19.88;60.09;101034.16;4990800;28;104127;-54
2022/06/07 09:59:49;;;;;;;5.95;3.60;;;;;;;19.88;58.81;101032.22;4989367;28;102491;-54
2022/06/07 10:02:42;;;;;;;7.97;4.18;;;;;;;19.91;59.84;101037.09;4987217;28;102147;-55
2022/06/07 10:05:21;;;;;;;4.75;4.00;;;;;;;19.85;62.38;101035.63;4982761;28;102225;-54
2022/06/07 10:07:54;;;;;;;5.00;4.00;;;;;;;19.81;62.38;101031.91;4988523;28;103853;-54
2022/06/07 10:10:29;;;;;;;5.10;4.20;;;;;;;19.79;62.97;101033.34;4997659;28;102463;-54
2022/06/07 10:13:05;;;;;;;4.90;3.90;;;;;;;19.80;62.08;101027.53;4995332;28;102106;-54
2022/06/07 10:15:38;;;;;;;4.53;3.90;;;;;;;19.81;63.33;101036.63;4997814;28;102421;-54
2022/06/07 10:18:21;;;;;;;4.35;3.63;;;;;;;19.84;63.21;101020.19;4988671;28;103935;-55
2022/06/07 10:21:19;;;;;;;5.57;3.90;;;;;;;19.83;62.20;101013.03;4986606;28;104319;-54
2022/06/07 10:24:15;;;;;;;4.88;3.90;;;;;;;19.85;63.31;101013.53;4988983;28;102186;-55
2022/06/07 10:27:03;;;;;;;3.92;3.50;;;;;;;19.80;63.35;101019.25;4987823;28;102214;-53
2022/06/07 10:29:53;;;;;;;4.97;3.53;;;;;;;19.79;63.10;101014.81;4979587;28;103966;-54
2022/06/07 10:32:27;;;;;;;5.53;3.65;;;;;;;19.81;63.40;101022.81;4990751;28;102605;-54
2022/06/07 10:35:02;;;;;;;4.93;3.85;;;;;;;19.78;62.93;101021.50;4987212;28;102746;-54
2022/06/07 10:37:37;;;;;;;5.32;3.63;;;;;;;19.79;63.57;101016.78;4992251;28;102509;-54
2022/06/07 10:40:15;;;;;;;4.50;3.55;;;;;;;19.74;63.47;101015.00;4990240;28;103942;-54
2022/06/07 10:42:48;;;;;;;4.45;3.22;;;;;;;19.74;63.74;101012.25;4986418;28;102700;-54
2022/06/07 10:45:21;;;;;;;7.03;3.58;;;;;;;19.80;63.42;101008.19;4990807;28;102287;-54
2022/06/07 10:47:56;;;;;;;6.40;3.72;;;;;;;19.78;63.28;101012.41;4996629;28;102215;-54
2022/06/07 10:50:28;;;;;;;4.28;3.88;;;;;;;19.77;63.70;101014.38;4987407;28;103874;-53
2022/06/07 10:53:02;;;;;;;3.95;3.38;;;;;;;19.75;63.26;101004.78;4986812;28;102353;-54
2022/06/07 10:55:35;;;;;;;4.57;3.30;;;;;;;19.73;63.72;101007.88;4984050;28;102570;-54
2022/06/07 10:58:18;;;;;;;8.50;3.92;;;;;;;19.78;62.42;101020.69;4997082;28;102286;-54
2022/06/07 11:00:50;;;;;;;5.57;3.38;;;;;;;19.78;62.59;101013.22;4996596;28;104024;-54
2022/06/07 11:03:27;;;;;;;8.95;3.38;;;;;;;19.79;63.00;101012.06;4996317;28;102050;-54
2022/06/07 11:12:02;;;;;;;4.75;4.03;;;;;;;19.68;62.86;100994.22;4953247;28;107934;-54
2022/06/07 11:14:50;;;;;;;3.97;3.53;;;;;;;19.71;63.74;100992.75;4954295;28;101954;-54
2022/06/07 11:17:30;;;;;;;3.53;3.17;;;;;;;19.73;61.72;100987.72;4967676;28;101994;-54
2022/06/07 11:20:00;;;;;;;3.40;3.10;;;;;;;19.71;63.52;100999.09;4977554;28;102344;-54
2022/06/07 11:22:36;;;;;;;3.60;3.22;;;;;;;19.71;63.84;100988.03;4977452;28;104013;-54
2022/06/07 11:25:25;;;;;;;4.18;3.78;;;;;;;19.68;63.42;100988.69;4996734;28;102524;-54
2022/06/07 11:27:55;;;;;;;3.60;3.30;;;;;;;19.69;63.55;100990.34;4993485;28;102277;-54
2022/06/07 11:30:41;;;;;;;5.90;3.97;;;;;;;19.67;63.61;100976.03;4997239;28;102428;-54
2022/06/07 11:33:38;;;;;;;5.95;3.95;;;;;;;19.68;63.49;100980.41;4994858;28;108001;-54
2022/06/07 11:36:25;;;;;;;3.83;3.40;;;;;;;19.65;63.51;100986.56;4995849;28;102422;-54
2022/06/07 11:39:04;;;;;;;5.82;3.40;;;;;;;19.65;63.91;100972.78;4994336;28;102456;-54
2022/06/07 11:41:47;;;;;;;4.72;3.80;;;;;;;19.66;64.04;100969.69;4995882;28;102296;-55
2022/06/07 11:44:30;;;;;;;3.90;3.50;;;;;;;19.71;63.46;100974.25;4993557;28;104084;-54
2022/06/07 11:47:02;;;;;;;4.43;3.63;;;;;;;19.67;63.31;100971.31;4985195;28;102275;-54
2022/06/07 11:49:38;;;;;;;4.60;3.40;;;;;;;19.67;62.39;100962.22;4995464;28;102601;-54
2022/06/07 11:52:22;;;;;;;4.32;3.67;;;;;;;19.66;63.31;100968.91;4995604;28;102250;-54
2022/06/07 11:54:56;;;;;;;4.35;3.42;;;;;;;19.67;63.95;100970.50;4994339;28;108175;-54
2022/06/07 11:57:30;;;;;;;3.95;3.55;;;;;;;19.63;63.16;100966.78;4994700;28;102289;-54